BAW907 EDDF-EGLL
Flight info
| Callsign | BAW907 |
|---|---|
| Flight time | 1h 6m |
| Altitude | 38000 |
| Route | OBOKA5G OBOKA Z29 TORNU DCT ABNED L980 LOGAN LOGAN2H |
| Aircraft | A320/M-SDE3FGHIRWY/LB1 |
Departure
| Time | 2026-04-16 14:51 |
|---|---|
| Airport | Frankfurt Main Airport (EDDF) |
Arrival
| Time | 2026-04-16 15:57 |
|---|---|
| Airport | London Heathrow Airport (EGLL) |
| Time | Latitude | Longitude | Altitude | Speed | Heading |
|---|---|---|---|---|---|
| 2026-04-16 14:18 | 50.05159 | 8.59073 | 362 ft | 0 kts | 340° |
| 2026-04-16 14:44 | 50.05147 | 8.59080 | 364 ft | 4 kts | 340° |
| 2026-04-16 14:44 | 50.05121 | 8.59094 | 360 ft | 4 kts | 340° |
| 2026-04-16 14:45 | 50.05096 | 8.59108 | 361 ft | 4 kts | 343° |
| 2026-04-16 14:45 | 50.05071 | 8.59120 | 362 ft | 4 kts | 324° |
| 2026-04-16 14:45 | 50.05062 | 8.59138 | 363 ft | 2 kts | 250° |
| 2026-04-16 14:45 | 50.05072 | 8.59175 | 359 ft | 4 kts | 249° |
| 2026-04-16 14:46 | 50.05074 | 8.59185 | 359 ft | 0 kts | 250° |
| 2026-04-16 14:48 | 50.05071 | 8.59172 | 359 ft | 2 kts | 250° |
| 2026-04-16 14:48 | 50.05056 | 8.59108 | 359 ft | 11 kts | 249° |
| 2026-04-16 14:48 | 50.05025 | 8.58983 | 364 ft | 14 kts | 249° |
| 2026-04-16 14:48 | 50.04989 | 8.58833 | 364 ft | 16 kts | 249° |
| 2026-04-16 14:49 | 50.04955 | 8.58694 | 361 ft | 12 kts | 242° |
| 2026-04-16 14:49 | 50.04878 | 8.58688 | 363 ft | 12 kts | 162° |
| 2026-04-16 14:49 | 50.04807 | 8.58728 | 366 ft | 10 kts | 159° |
| 2026-04-16 14:49 | 50.04743 | 8.58765 | 372 ft | 9 kts | 161° |
| 2026-04-16 14:50 | 50.04680 | 8.58771 | 370 ft | 10 kts | 180° |
| 2026-04-16 14:50 | 50.04602 | 8.58741 | 371 ft | 13 kts | 211° |
| 2026-04-16 14:50 | 50.04515 | 8.58646 | 371 ft | 20 kts | 222° |
| 2026-04-16 14:50 | 50.04404 | 8.58263 | 370 ft | 71 kts | 252° |
| 2026-04-16 14:51 | 50.04162 | 8.57227 | 365 ft | 130 kts | 250° |
| 2026-04-16 14:51 | 50.03805 | 8.55676 | 407 ft | 169 kts | 253° |
| 2026-04-16 14:51 | 50.03403 | 8.53975 | 1104 ft | 166 kts | 250° |
| 2026-04-16 14:51 | 50.02992 | 8.52293 | 1842 ft | 169 kts | 250° |
| 2026-04-16 14:53 | 50.01993 | 8.35561 | 6329 ft | 261 kts | 259° |
| 2026-04-16 14:53 | 50.01641 | 8.32781 | 7259 ft | 263 kts | 259° |
| 2026-04-16 14:54 | 50.01345 | 8.29970 | 8158 ft | 267 kts | 267° |
| 2026-04-16 14:54 | 50.01544 | 8.27090 | 9003 ft | 272 kts | 284° |
| 2026-04-16 14:54 | 50.02250 | 8.24344 | 9878 ft | 276 kts | 294° |
| 2026-04-16 14:54 | 50.03080 | 8.21614 | 10585 ft | 286 kts | 293° |
| 2026-04-16 14:55 | 50.03943 | 8.18693 | 10835 ft | 309 kts | 293° |
| 2026-04-16 14:55 | 50.04860 | 8.15538 | 11027 ft | 332 kts | 293° |
| 2026-04-16 14:55 | 50.05898 | 8.12235 | 11438 ft | 346 kts | 300° |
| 2026-04-16 14:55 | 50.07341 | 8.09205 | 12093 ft | 351 kts | 307° |
| 2026-04-16 14:56 | 50.08876 | 8.06237 | 12821 ft | 353 kts | 307° |
| 2026-04-16 14:56 | 50.10420 | 8.03249 | 13593 ft | 355 kts | 307° |
| 2026-04-16 14:56 | 50.11974 | 8.00235 | 14311 ft | 358 kts | 307° |
| 2026-04-16 14:56 | 50.13535 | 7.97199 | 14951 ft | 360 kts | 307° |
| 2026-04-16 14:57 | 50.15106 | 7.94138 | 15598 ft | 362 kts | 307° |
| 2026-04-16 14:57 | 50.16665 | 7.91101 | 16219 ft | 365 kts | 307° |
| 2026-04-16 14:57 | 50.18253 | 7.87996 | 16841 ft | 368 kts | 307° |
| 2026-04-16 14:57 | 50.19777 | 7.85006 | 17436 ft | 370 kts | 307° |
| 2026-04-16 14:58 | 50.21431 | 7.81758 | 18086 ft | 373 kts | 307° |
| 2026-04-16 14:58 | 50.24806 | 7.75542 | 19220 ft | 380 kts | 315° |
| 2026-04-16 14:58 | 50.26922 | 7.73027 | 19773 ft | 385 kts | 326° |
| 2026-04-16 14:59 | 50.29336 | 7.71147 | 20331 ft | 391 kts | 333° |
| 2026-04-16 14:59 | 50.31838 | 7.69452 | 20887 ft | 393 kts | 333° |
| 2026-04-16 14:59 | 50.34352 | 7.67739 | 21427 ft | 395 kts | 333° |
| 2026-04-16 14:59 | 50.36879 | 7.66012 | 21933 ft | 398 kts | 333° |
| 2026-04-16 15:00 | 50.39424 | 7.64268 | 22431 ft | 400 kts | 333° |
| 2026-04-16 15:00 | 50.41978 | 7.62512 | 22924 ft | 402 kts | 333° |
| 2026-04-16 15:00 | 50.44549 | 7.60739 | 23403 ft | 405 kts | 333° |
| 2026-04-16 15:00 | 50.47135 | 7.58950 | 23862 ft | 407 kts | 332° |
| 2026-04-16 15:01 | 50.49734 | 7.57151 | 24254 ft | 409 kts | 332° |
| 2026-04-16 15:01 | 50.52346 | 7.55351 | 24635 ft | 411 kts | 332° |
| 2026-04-16 15:01 | 50.54969 | 7.53532 | 25033 ft | 412 kts | 331° |
| 2026-04-16 15:01 | 50.57424 | 7.51328 | 25401 ft | 411 kts | 323° |
| 2026-04-16 15:02 | 50.59774 | 7.48913 | 25792 ft | 412 kts | 323° |
| 2026-04-16 15:02 | 50.62181 | 7.46444 | 26193 ft | 414 kts | 323° |
| 2026-04-16 15:02 | 50.64601 | 7.43963 | 26601 ft | 416 kts | 323° |
| 2026-04-16 15:02 | 50.67029 | 7.41473 | 27003 ft | 417 kts | 323° |
| 2026-04-16 15:03 | 50.69465 | 7.38970 | 27400 ft | 419 kts | 323° |
| 2026-04-16 15:03 | 50.71873 | 7.36376 | 27778 ft | 419 kts | 318° |
| 2026-04-16 15:03 | 50.74008 | 7.33259 | 28161 ft | 417 kts | 309° |
| 2026-04-16 15:03 | 50.75759 | 7.29648 | 28719 ft | 412 kts | 301° |
| 2026-04-16 15:04 | 50.77135 | 7.25706 | 29322 ft | 409 kts | 296° |
| 2026-04-16 15:04 | 50.78432 | 7.21725 | 29921 ft | 406 kts | 296° |
| 2026-04-16 15:04 | 50.79724 | 7.17769 | 30479 ft | 404 kts | 296° |
| 2026-04-16 15:04 | 50.81007 | 7.13842 | 31014 ft | 400 kts | 296° |
| 2026-04-16 15:05 | 50.82274 | 7.09948 | 31597 ft | 396 kts | 296° |
| 2026-04-16 15:05 | 50.83523 | 7.06093 | 32179 ft | 392 kts | 297° |
| 2026-04-16 15:05 | 50.84754 | 7.02275 | 32797 ft | 387 kts | 297° |
| 2026-04-16 15:05 | 50.85952 | 6.98544 | 33412 ft | 383 kts | 297° |
| 2026-04-16 15:06 | 50.86763 | 6.96021 | 33840 ft | 379 kts | 297° |
| 2026-04-16 15:06 | 50.88335 | 6.91127 | 34612 ft | 374 kts | 297° |
| 2026-04-16 15:06 | 50.89508 | 6.87465 | 34989 ft | 373 kts | 297° |
| 2026-04-16 15:06 | 50.90685 | 6.83797 | 35313 ft | 374 kts | 297° |
| 2026-04-16 15:07 | 50.91866 | 6.80124 | 35615 ft | 375 kts | 297° |
| 2026-04-16 15:07 | 50.92664 | 6.77636 | 35815 ft | 375 kts | 297° |
| 2026-04-16 15:07 | 50.93847 | 6.73941 | 36099 ft | 377 kts | 297° |
| 2026-04-16 15:07 | 50.95035 | 6.70225 | 36201 ft | 380 kts | 296° |
| 2026-04-16 15:08 | 50.96241 | 6.66451 | 36218 ft | 385 kts | 296° |
| 2026-04-16 15:08 | 50.98649 | 6.58887 | 36216 ft | 388 kts | 296° |
| 2026-04-16 15:09 | 51.01073 | 6.51240 | 36216 ft | 388 kts | 296° |
| 2026-04-16 15:09 | 51.03498 | 6.43587 | 36214 ft | 388 kts | 296° |
| 2026-04-16 15:10 | 51.05916 | 6.35929 | 36216 ft | 388 kts | 296° |
| 2026-04-16 15:10 | 51.08318 | 6.28253 | 36219 ft | 388 kts | 296° |
| 2026-04-16 15:11 | 51.10720 | 6.20570 | 36234 ft | 388 kts | 296° |
| 2026-04-16 15:11 | 51.13120 | 6.12877 | 36234 ft | 388 kts | 296° |
| 2026-04-16 15:12 | 51.14872 | 6.04774 | 36233 ft | 388 kts | 285° |
| 2026-04-16 15:12 | 51.16219 | 5.96446 | 36229 ft | 388 kts | 285° |
| 2026-04-16 15:13 | 51.17566 | 5.88121 | 36230 ft | 388 kts | 285° |
| 2026-04-16 15:13 | 51.19228 | 5.79978 | 36227 ft | 387 kts | 293° |
| 2026-04-16 15:14 | 51.21323 | 5.72079 | 36226 ft | 386 kts | 292° |
| 2026-04-16 15:14 | 51.23404 | 5.64175 | 36221 ft | 386 kts | 292° |
| 2026-04-16 15:15 | 51.25478 | 5.56272 | 36225 ft | 386 kts | 292° |
| 2026-04-16 15:15 | 51.27533 | 5.48413 | 36222 ft | 386 kts | 292° |
| 2026-04-16 15:16 | 51.29601 | 5.40486 | 36226 ft | 386 kts | 292° |
| 2026-04-16 15:16 | 51.31665 | 5.32558 | 36228 ft | 387 kts | 292° |
| 2026-04-16 15:17 | 51.33721 | 5.24612 | 36230 ft | 386 kts | 292° |
| 2026-04-16 15:17 | 51.35774 | 5.16667 | 36229 ft | 386 kts | 292° |
| 2026-04-16 15:18 | 51.37820 | 5.08720 | 36225 ft | 386 kts | 292° |
| 2026-04-16 15:18 | 51.39854 | 5.00762 | 36223 ft | 386 kts | 291° |
| 2026-04-16 15:19 | 51.41885 | 4.92803 | 36225 ft | 386 kts | 291° |
| 2026-04-16 15:19 | 51.43917 | 4.84834 | 36223 ft | 386 kts | 291° |
| 2026-04-16 15:20 | 51.45942 | 4.76864 | 36223 ft | 386 kts | 291° |
| 2026-04-16 15:20 | 51.47953 | 4.68879 | 36226 ft | 386 kts | 291° |
| 2026-04-16 15:21 | 51.49962 | 4.60894 | 36224 ft | 386 kts | 291° |
| 2026-04-16 15:21 | 51.51974 | 4.52876 | 36225 ft | 387 kts | 291° |
| 2026-04-16 15:22 | 51.53973 | 4.44858 | 36233 ft | 387 kts | 291° |
| 2026-04-16 15:22 | 51.55974 | 4.36831 | 36232 ft | 387 kts | 291° |
| 2026-04-16 15:23 | 51.57967 | 4.28795 | 36235 ft | 387 kts | 291° |
| 2026-04-16 15:23 | 51.59945 | 4.20806 | 36232 ft | 387 kts | 290° |
| 2026-04-16 15:24 | 51.61933 | 4.12770 | 36232 ft | 387 kts | 290° |
| 2026-04-16 15:24 | 51.63913 | 4.04720 | 36233 ft | 387 kts | 290° |
| 2026-04-16 15:25 | 51.65878 | 3.96662 | 36228 ft | 387 kts | 290° |
| 2026-04-16 15:25 | 51.67839 | 3.88602 | 36232 ft | 386 kts | 290° |
| 2026-04-16 15:26 | 51.69795 | 3.80533 | 36227 ft | 386 kts | 290° |
| 2026-04-16 15:26 | 51.71749 | 3.72460 | 36230 ft | 386 kts | 290° |
| 2026-04-16 15:27 | 51.73698 | 3.64378 | 36229 ft | 387 kts | 290° |
| 2026-04-16 15:27 | 51.75641 | 3.56287 | 36229 ft | 387 kts | 289° |
| 2026-04-16 15:28 | 51.77572 | 3.48191 | 36234 ft | 387 kts | 289° |
| 2026-04-16 15:28 | 51.79503 | 3.40088 | 36232 ft | 386 kts | 289° |
| 2026-04-16 15:29 | 51.81423 | 3.31979 | 36233 ft | 386 kts | 289° |
| 2026-04-16 15:29 | 51.83326 | 3.23921 | 36238 ft | 386 kts | 289° |
| 2026-04-16 15:30 | 51.84611 | 3.15550 | 36231 ft | 385 kts | 274° |
| 2026-04-16 15:30 | 51.84255 | 3.06901 | 36225 ft | 387 kts | 266° |
| 2026-04-16 15:31 | 51.83687 | 2.98257 | 36222 ft | 387 kts | 266° |
| 2026-04-16 15:31 | 51.83123 | 2.89610 | 36215 ft | 387 kts | 266° |
| 2026-04-16 15:32 | 51.82552 | 2.80958 | 36215 ft | 387 kts | 265° |
| 2026-04-16 15:32 | 51.81966 | 2.72311 | 36212 ft | 387 kts | 265° |
| 2026-04-16 15:33 | 51.81379 | 2.63660 | 36214 ft | 387 kts | 265° |
| 2026-04-16 15:33 | 51.80785 | 2.55010 | 36216 ft | 387 kts | 265° |
| 2026-04-16 15:34 | 51.80178 | 2.46361 | 36215 ft | 387 kts | 265° |
| 2026-04-16 15:34 | 51.79565 | 2.37716 | 36217 ft | 388 kts | 265° |
| 2026-04-16 15:35 | 51.78944 | 2.29068 | 36218 ft | 388 kts | 265° |
| 2026-04-16 15:35 | 51.78330 | 2.20480 | 36193 ft | 388 kts | 265° |
| 2026-04-16 15:35 | 51.78056 | 2.16151 | 35820 ft | 387 kts | 265° |
| 2026-04-16 15:36 | 51.77806 | 2.11812 | 35132 ft | 388 kts | 266° |
| 2026-04-16 15:36 | 51.77565 | 2.07468 | 34432 ft | 389 kts | 266° |
| 2026-04-16 15:36 | 51.77323 | 2.03105 | 33614 ft | 391 kts | 266° |
| 2026-04-16 15:36 | 51.77075 | 1.98727 | 32815 ft | 392 kts | 265° |
| 2026-04-16 15:37 | 51.76818 | 1.94332 | 31998 ft | 394 kts | 265° |
| 2026-04-16 15:37 | 51.76551 | 1.89925 | 31207 ft | 395 kts | 265° |
| 2026-04-16 15:37 | 51.76279 | 1.85503 | 30306 ft | 398 kts | 265° |
| 2026-04-16 15:37 | 51.76003 | 1.81028 | 29256 ft | 402 kts | 265° |
| 2026-04-16 15:38 | 51.75727 | 1.76532 | 28302 ft | 404 kts | 265° |
| 2026-04-16 15:38 | 51.75447 | 1.72006 | 27233 ft | 408 kts | 265° |
| 2026-04-16 15:38 | 51.75162 | 1.67425 | 26146 ft | 413 kts | 264° |
| 2026-04-16 15:38 | 51.74872 | 1.62814 | 25402 ft | 411 kts | 264° |
| 2026-04-16 15:39 | 51.74582 | 1.58251 | 24766 ft | 408 kts | 264° |
| 2026-04-16 15:39 | 51.74290 | 1.53664 | 24169 ft | 413 kts | 264° |
| 2026-04-16 15:39 | 51.73993 | 1.49057 | 23507 ft | 413 kts | 264° |
| 2026-04-16 15:39 | 51.73795 | 1.46005 | 23059 ft | 412 kts | 264° |
| 2026-04-16 15:40 | 51.73398 | 1.39882 | 22249 ft | 409 kts | 264° |
| 2026-04-16 15:40 | 51.73102 | 1.35332 | 21633 ft | 406 kts | 264° |
| 2026-04-16 15:40 | 51.72806 | 1.30816 | 21021 ft | 404 kts | 264° |
| 2026-04-16 15:40 | 51.72511 | 1.26334 | 20417 ft | 401 kts | 264° |
| 2026-04-16 15:41 | 51.72217 | 1.21872 | 19818 ft | 399 kts | 263° |
| 2026-04-16 15:41 | 51.71921 | 1.17435 | 19217 ft | 396 kts | 263° |
| 2026-04-16 15:41 | 51.71624 | 1.13033 | 18631 ft | 394 kts | 263° |
| 2026-04-16 15:41 | 51.71325 | 1.08653 | 17990 ft | 392 kts | 263° |
| 2026-04-16 15:42 | 51.71026 | 1.04309 | 17403 ft | 389 kts | 263° |
| 2026-04-16 15:42 | 51.70726 | 0.99995 | 16822 ft | 385 kts | 263° |
| 2026-04-16 15:42 | 51.70437 | 0.95800 | 16258 ft | 382 kts | 263° |
| 2026-04-16 15:42 | 51.70146 | 0.91548 | 15440 ft | 383 kts | 263° |
| 2026-04-16 15:43 | 51.69853 | 0.87308 | 14465 ft | 388 kts | 263° |
| 2026-04-16 15:43 | 51.69551 | 0.82962 | 13480 ft | 392 kts | 263° |
| 2026-04-16 15:43 | 51.69248 | 0.78633 | 12905 ft | 384 kts | 263° |
| 2026-04-16 15:43 | 51.68951 | 0.74456 | 12758 ft | 366 kts | 263° |
| 2026-04-16 15:44 | 51.68669 | 0.70494 | 12628 ft | 347 kts | 263° |
| 2026-04-16 15:44 | 51.68402 | 0.66732 | 12498 ft | 329 kts | 263° |
| 2026-04-16 15:44 | 51.68148 | 0.63152 | 12372 ft | 315 kts | 262° |
| 2026-04-16 15:44 | 51.67902 | 0.59717 | 12243 ft | 302 kts | 262° |
| 2026-04-16 15:45 | 51.67663 | 0.56416 | 12116 ft | 291 kts | 262° |
| 2026-04-16 15:45 | 51.67431 | 0.53222 | 11923 ft | 284 kts | 262° |
| 2026-04-16 15:45 | 51.67202 | 0.50081 | 11603 ft | 281 kts | 262° |
| 2026-04-16 15:45 | 51.66975 | 0.46957 | 11258 ft | 280 kts | 262° |
| 2026-04-16 15:46 | 51.66749 | 0.43847 | 10913 ft | 279 kts | 262° |
| 2026-04-16 15:46 | 51.66522 | 0.40752 | 10580 ft | 278 kts | 262° |
| 2026-04-16 15:46 | 51.66296 | 0.37668 | 10220 ft | 275 kts | 262° |
| 2026-04-16 15:46 | 51.66073 | 0.34617 | 9578 ft | 274 kts | 262° |
| 2026-04-16 15:47 | 51.65851 | 0.31604 | 8942 ft | 272 kts | 262° |
| 2026-04-16 15:47 | 51.65625 | 0.28588 | 8308 ft | 270 kts | 262° |
| 2026-04-16 15:47 | 51.65395 | 0.25602 | 7737 ft | 267 kts | 262° |
| 2026-04-16 15:47 | 51.65169 | 0.22663 | 7349 ft | 259 kts | 262° |
| 2026-04-16 15:48 | 51.64952 | 0.19830 | 7223 ft | 251 kts | 262° |
| 2026-04-16 15:48 | 51.64745 | 0.17088 | 7102 ft | 243 kts | 262° |
| 2026-04-16 15:48 | 51.64543 | 0.14428 | 6974 ft | 235 kts | 261° |
| 2026-04-16 15:48 | 51.64234 | 0.12420 | 6735 ft | 233 kts | 242° |
| 2026-04-16 15:49 | 51.63176 | 0.10494 | 6463 ft | 232 kts | 216° |
| 2026-04-16 15:49 | 51.61843 | 0.09044 | 6194 ft | 230 kts | 217° |
| 2026-04-16 15:49 | 51.60561 | 0.07512 | 5902 ft | 229 kts | 218° |
| 2026-04-16 15:49 | 51.59299 | 0.05953 | 5635 ft | 228 kts | 219° |
| 2026-04-16 15:50 | 51.58043 | 0.04402 | 5329 ft | 228 kts | 218° |
| 2026-04-16 15:50 | 51.56787 | 0.02862 | 5073 ft | 226 kts | 218° |
| 2026-04-16 15:50 | 51.55546 | 0.01352 | 4869 ft | 222 kts | 218° |
| 2026-04-16 15:50 | 51.54324 | -0.00129 | 4684 ft | 218 kts | 218° |
| 2026-04-16 15:51 | 51.53111 | -0.01590 | 4499 ft | 218 kts | 218° |
| 2026-04-16 15:51 | 51.51900 | -0.03047 | 4324 ft | 217 kts | 218° |
| 2026-04-16 15:51 | 51.50700 | -0.04490 | 4186 ft | 218 kts | 218° |
| 2026-04-16 15:51 | 51.49750 | -0.05628 | 4082 ft | 217 kts | 218° |
| 2026-04-16 15:52 | 51.48579 | -0.07137 | 3957 ft | 212 kts | 229° |
| 2026-04-16 15:52 | 51.47928 | -0.09169 | 3829 ft | 203 kts | 258° |
| 2026-04-16 15:52 | 51.47858 | -0.11398 | 3700 ft | 199 kts | 267° |
| 2026-04-16 15:52 | 51.47837 | -0.13614 | 3601 ft | 199 kts | 266° |
| 2026-04-16 15:53 | 51.47815 | -0.15838 | 3443 ft | 199 kts | 267° |
| 2026-04-16 15:53 | 51.47808 | -0.18056 | 3211 ft | 199 kts | 266° |
| 2026-04-16 15:53 | 51.47805 | -0.20277 | 2936 ft | 199 kts | 267° |
| 2026-04-16 15:53 | 51.47803 | -0.22499 | 2670 ft | 199 kts | 267° |
| 2026-04-16 15:54 | 51.47801 | -0.24712 | 2384 ft | 196 kts | 266° |
| 2026-04-16 15:54 | 51.47799 | -0.26848 | 2135 ft | 188 kts | 266° |
| 2026-04-16 15:54 | 51.47798 | -0.28214 | 1983 ft | 182 kts | 266° |
| 2026-04-16 15:54 | 51.47795 | -0.30798 | 1675 ft | 165 kts | 265° |
| 2026-04-16 15:55 | 51.47792 | -0.32008 | 1521 ft | 162 kts | 265° |
| 2026-04-16 15:55 | 51.47789 | -0.33785 | 1319 ft | 155 kts | 265° |
| 2026-04-16 15:55 | 51.47785 | -0.35503 | 1101 ft | 153 kts | 265° |
| 2026-04-16 15:55 | 51.47783 | -0.37122 | 901 ft | 138 kts | 265° |
| 2026-04-16 15:56 | 51.47779 | -0.38608 | 709 ft | 133 kts | 265° |
| 2026-04-16 15:56 | 51.47783 | -0.40054 | 546 ft | 129 kts | 264° |
| 2026-04-16 15:56 | 51.47777 | -0.41028 | 430 ft | 129 kts | 265° |
| 2026-04-16 15:56 | 51.47767 | -0.42943 | 180 ft | 129 kts | 265° |
| 2026-04-16 15:57 | 51.47756 | -0.44352 | 87 ft | 115 kts | 266° |
| 2026-04-16 15:57 | 51.47760 | -0.45093 | 89 ft | 82 kts | 270° |
| 2026-04-16 15:57 | 51.47757 | -0.45706 | 86 ft | 35 kts | 265° |
| 2026-04-16 15:57 | 51.47643 | -0.45977 | 86 ft | 20 kts | 221° |
| 2026-04-16 15:58 | 51.47593 | -0.46168 | 87 ft | 20 kts | 270° |
| 2026-04-16 15:58 | 51.47591 | -0.46395 | 87 ft | 21 kts | 269° |
| 2026-04-16 15:58 | 51.47589 | -0.46642 | 87 ft | 23 kts | 269° |
| 2026-04-16 15:58 | 51.47583 | -0.46906 | 90 ft | 26 kts | 265° |
| 2026-04-16 15:59 | 51.47580 | -0.47512 | 88 ft | 30 kts | 269° |
| 2026-04-16 15:59 | 51.47578 | -0.47770 | 88 ft | 11 kts | 270° |
| 2026-04-16 15:59 | 51.47579 | -0.47816 | 88 ft | 6 kts | 270° |
| 2026-04-16 16:00 | 51.47525 | -0.47880 | 88 ft | 16 kts | 181° |
| 2026-04-16 16:00 | 51.47488 | -0.48024 | 88 ft | 17 kts | 270° |
| 2026-04-16 16:00 | 51.47487 | -0.48231 | 88 ft | 20 kts | 269° |
| 2026-04-16 16:00 | 51.47482 | -0.48456 | 89 ft | 17 kts | 250° |
| 2026-04-16 16:01 | 51.47428 | -0.48472 | 87 ft | 8 kts | 170° |
| 2026-04-16 16:01 | 51.47361 | -0.48476 | 87 ft | 11 kts | 181° |
| 2026-04-16 16:01 | 51.47285 | -0.48477 | 89 ft | 0 kts | 180° |
| 2026-04-16 16:02 | 51.47275 | -0.48484 | 88 ft | 2 kts | 216° |
| 2026-04-16 16:02 | 51.47271 | -0.48526 | 89 ft | 6 kts | 267° |
| 2026-04-16 16:02 | 51.47271 | -0.48578 | 88 ft | 2 kts | 270° |
| 2026-04-16 16:02 | 51.47271 | -0.48584 | 88 ft | 0 kts | 270° |